sensor_id;sensor_type;location;lat;lon;timestamp;temperature;humidity
11639;DHT22;5875;35.940;126.892;2022-09-01T00:02:16;22.90;99.90
11639;DHT22;5875;35.940;126.892;2022-09-01T00:04:44;23.00;99.90
11639;DHT22;5875;35.940;126.892;2022-09-01T00:07:13;23.00;99.90
11639;DHT22;5875;35.940;126.892;2022-09-01T00:09:40;23.00;99.90
11639;DHT22;5875;35.940;126.892;2022-09-01T00:12:08;23.00;99.90
11639;DHT22;5875;35.940;126.892;2022-09-01T00:14:39;23.00;99.90
11639;DHT22;5875;35.940;126.892;2022-09-01T00:17:08;23.00;99.90
11639;DHT22;5875;35.940;126.892;2022-09-01T00:19:36;23.00;99.90
11639;DHT22;5875;35.940;126.892;2022-09-01T00:22:05;22.90;99.90
11639;DHT22;5875;35.940;126.892;2022-09-01T00:24:33;22.90;99.90
11639;DHT22;5875;35.940;126.892;2022-09-01T00:27:00;22.90;99.90
11639;DHT22;5875;35.940;126.892;2022-09-01T00:29:27;22.90;99.90
11639;DHT22;5875;35.940;126.892;2022-09-01T00:31:54;22.90;99.90
11639;DHT22;5875;35.940;126.892;2022-09-01T00:34:22;23.00;99.90
11639;DHT22;5875;35.940;126.892;2022-09-01T00:36:49;22.90;99.90
11639;DHT22;5875;35.940;126.892;2022-09-01T00:39:16;23.00;99.90
11639;DHT22;5875;35.940;126.892;2022-09-01T00:41:44;23.10;99.90
11639;DHT22;5875;35.940;126.892;2022-09-01T00:44:15;23.20;99.90
11639;DHT22;5875;35.940;126.892;2022-09-01T00:46:48;23.20;99.90
11639;DHT22;5875;35.940;126.892;2022-09-01T00:49:19;23.20;99.90
11639;DHT22;5875;35.940;126.892;2022-09-01T00:51:51;23.20;99.90
11639;DHT22;5875;35.940;126.892;2022-09-01T00:54:23;23.20;99.90
11639;DHT22;5875;35.940;126.892;2022-09-01T00:56:53;23.20;99.90
11639;DHT22;5875;35.940;126.892;2022-09-01T00:59:22;23.20;99.90
11639;DHT22;5875;35.940;126.892;2022-09-01T01:01:50;23.20;99.90
11639;DHT22;5875;35.940;126.892;2022-09-01T01:04:17;23.20;99.90
11639;DHT22;5875;35.940;126.892;2022-09-01T01:06:48;23.30;99.90
11639;DHT22;5875;35.940;126.892;2022-09-01T01:09:25;23.30;99.90
11639;DHT22;5875;35.940;126.892;2022-09-01T01:11:53;23.40;99.90
11639;DHT22;5875;35.940;126.892;2022-09-01T01:14:25;23.40;99.90
11639;DHT22;5875;35.940;126.892;2022-09-01T01:16:54;23.40;99.90
11639;DHT22;5875;35.940;126.892;2022-09-01T01:19:36;23.50;99.90
11639;DHT22;5875;35.940;126.892;2022-09-01T01:25:36;23.60;99.90
11639;DHT22;5875;35.940;126.892;2022-09-01T01:28:19;23.60;99.90
11639;DHT22;5875;35.940;126.892;2022-09-01T01:30:52;23.70;99.90
11639;DHT22;5875;35.940;126.892;2022-09-01T01:33:22;23.80;99.90
11639;DHT22;5875;35.940;126.892;2022-09-01T01:35:51;23.90;99.90
11639;DHT22;5875;35.940;126.892;2022-09-01T01:38:19;24.00;99.90
11639;DHT22;5875;35.940;126.892;2022-09-01T01:40:48;24.00;99.90
11639;DHT22;5875;35.940;126.892;2022-09-01T01:43:17;24.00;99.90
11639;DHT22;5875;35.940;126.892;2022-09-01T01:45:50;24.10;99.90
11639;DHT22;5875;35.940;126.892;2022-09-01T01:48:20;24.30;99.90
11639;DHT22;5875;35.940;126.892;2022-09-01T01:50:53;24.70;99.90
11639;DHT22;5875;35.940;126.892;2022-09-01T01:53:21;25.40;99.90
11639;DHT22;5875;35.940;126.892;2022-09-01T01:55:48;25.70;99.90
11639;DHT22;5875;35.940;126.892;2022-09-01T01:58:20;25.90;99.90
11639;DHT22;5875;35.940;126.892;2022-09-01T02:00:51;26.10;99.90
11639;DHT22;5875;35.940;126.892;2022-09-01T02:03:23;26.50;99.90
11639;DHT22;5875;35.940;126.892;2022-09-01T02:05:52;27.00;99.90
11639;DHT22;5875;35.940;126.892;2022-09-01T02:08:21;27.30;99.90
11639;DHT22;5875;35.940;126.892;2022-09-01T02:10:53;27.50;99.90
11639;DHT22;5875;35.940;126.892;2022-09-01T02:13:22;27.60;99.90
11639;DHT22;5875;35.940;126.892;2022-09-01T02:15:55;27.50;99.90
11639;DHT22;5875;35.940;126.892;2022-09-01T02:18:26;27.40;99.90
11639;DHT22;5875;35.940;126.892;2022-09-01T02:20:54;27.30;99.90
11639;DHT22;5875;35.940;126.892;2022-09-01T02:23:24;27.60;99.90
11639;DHT22;5875;35.940;126.892;2022-09-01T02:25:54;27.90;99.90
11639;DHT22;5875;35.940;126.892;2022-09-01T02:28:22;27.80;99.90
11639;DHT22;5875;35.940;126.892;2022-09-01T02:30:51;27.80;99.90
11639;DHT22;5875;35.940;126.892;2022-09-01T02:33:21;27.80;99.90
11639;DHT22;5875;35.940;126.892;2022-09-01T02:35:53;28.10;99.90
11639;DHT22;5875;35.940;126.892;2022-09-01T02:38:21;28.20;99.90
11639;DHT22;5875;35.940;126.892;2022-09-01T02:40:52;28.30;99.90
11639;DHT22;5875;35.940;126.892;2022-09-01T02:43:20;28.80;99.90
11639;DHT22;5875;35.940;126.892;2022-09-01T02:45:49;29.40;99.90
11639;DHT22;5875;35.940;126.892;2022-09-01T02:48:35;30.10;99.90
11639;DHT22;5875;35.940;126.892;2022-09-01T02:51:06;29.80;99.90
11639;DHT22;5875;35.940;126.892;2022-09-01T02:53:34;29.50;99.90
11639;DHT22;5875;35.940;126.892;2022-09-01T02:56:03;29.30;99.90
11639;DHT22;5875;35.940;126.892;2022-09-01T02:58:35;29.00;99.90
11639;DHT22;5875;35.940;126.892;2022-09-01T03:01:14;28.60;99.90
11639;DHT22;5875;35.940;126.892;2022-09-01T03:03:46;28.20;99.90
11639;DHT22;5875;35.940;126.892;2022-09-01T03:06:14;28.00;99.90
11639;DHT22;5875;35.940;126.892;2022-09-01T03:08:44;27.90;99.90
11639;DHT22;5875;35.940;126.892;2022-09-01T03:11:11;27.80;99.90
11639;DHT22;5875;35.940;126.892;2022-09-01T03:13:40;27.80;99.90
11639;DHT22;5875;35.940;126.892;2022-09-01T03:16:08;27.80;99.90
11639;DHT22;5875;35.940;126.892;2022-09-01T03:18:36;27.70;99.90
11639;DHT22;5875;35.940;126.892;2022-09-01T03:21:04;27.70;99.90
11639;DHT22;5875;35.940;126.892;2022-09-01T03:23:32;27.60;99.90
11639;DHT22;5875;35.940;126.892;2022-09-01T03:25:59;27.60;99.90
11639;DHT22;5875;35.940;126.892;2022-09-01T03:28:27;27.50;99.90
11639;DHT22;5875;35.940;126.892;2022-09-01T03:30:56;27.40;99.90
11639;DHT22;5875;35.940;126.892;2022-09-01T03:33:25;27.30;99.90
11639;DHT22;5875;35.940;126.892;2022-09-01T03:35:53;27.30;99.90
11639;DHT22;5875;35.940;126.892;2022-09-01T03:38:20;27.20;99.90
11639;DHT22;5875;35.940;126.892;2022-09-01T03:40:52;27.20;99.90
11639;DHT22;5875;35.940;126.892;2022-09-01T03:43:20;27.20;99.90
11639;DHT22;5875;35.940;126.892;2022-09-01T03:45:50;27.50;99.90
11639;DHT22;5875;35.940;126.892;2022-09-01T03:48:22;28.20;99.90
11639;DHT22;5875;35.940;126.892;2022-09-01T03:50:51;28.40;99.90
11639;DHT22;5875;35.940;126.892;2022-09-01T03:53:21;28.50;99.90
11639;DHT22;5875;35.940;126.892;2022-09-01T03:55:52;28.60;99.90
11639;DHT22;5875;35.940;126.892;2022-09-01T03:58:24;28.60;99.90
11639;DHT22;5875;35.940;126.892;2022-09-01T04:00:54;28.60;99.90
11639;DHT22;5875;35.940;126.892;2022-09-01T04:03:25;28.90;99.90
11639;DHT22;5875;35.940;126.892;2022-09-01T04:05:53;29.10;99.90
11639;DHT22;5875;35.940;126.892;2022-09-01T04:08:22;29.20;99.90
11639;DHT22;5875;35.940;126.892;2022-09-01T04:10:59;29.60;99.90
11639;DHT22;5875;35.940;126.892;2022-09-01T04:13:34;29.70;99.90
11639;DHT22;5875;35.940;126.892;2022-09-01T04:16:02;29.50;99.90
11639;DHT22;5875;35.940;126.892;2022-09-01T04:18:36;29.40;99.90
11639;DHT22;5875;35.940;126.892;2022-09-01T04:21:05;29.20;99.90
11639;DHT22;5875;35.940;126.892;2022-09-01T04:23:34;29.10;99.90
11639;DHT22;5875;35.940;126.892;2022-09-01T04:26:11;29.20;99.90
11639;DHT22;5875;35.940;126.892;2022-09-01T04:28:42;29.10;99.90
11639;DHT22;5875;35.940;126.892;2022-09-01T04:31:14;28.90;99.90
11639;DHT22;5875;35.940;126.892;2022-09-01T04:33:48;29.00;99.90
11639;DHT22;5875;35.940;126.892;2022-09-01T04:36:19;29.50;99.90
11639;DHT22;5875;35.940;126.892;2022-09-01T04:38:54;29.60;99.90
11639;DHT22;5875;35.940;126.892;2022-09-01T04:41:26;29.50;99.90
11639;DHT22;5875;35.940;126.892;2022-09-01T04:43:56;29.20;99.90
11639;DHT22;5875;35.940;126.892;2022-09-01T04:46:25;29.20;99.90
11639;DHT22;5875;35.940;126.892;2022-09-01T04:48:57;29.10;99.90
11639;DHT22;5875;35.940;126.892;2022-09-01T04:51:25;29.00;99.90
11639;DHT22;5875;35.940;126.892;2022-09-01T04:53:54;28.90;99.90
11639;DHT22;5875;35.940;126.892;2022-09-01T04:56:25;28.90;99.90
11639;DHT22;5875;35.940;126.892;2022-09-01T04:58:53;28.80;99.90
11639;DHT22;5875;35.940;126.892;2022-09-01T05:01:23;28.80;99.90
11639;DHT22;5875;35.940;126.892;2022-09-01T05:03:51;28.70;99.90
11639;DHT22;5875;35.940;126.892;2022-09-01T05:06:28;28.60;99.90
11639;DHT22;5875;35.940;126.892;2022-09-01T05:08:59;28.60;99.90
11639;DHT22;5875;35.940;126.892;2022-09-01T05:11:26;28.60;99.90
11639;DHT22;5875;35.940;126.892;2022-09-01T05:13:53;28.50;99.90
11639;DHT22;5875;35.940;126.892;2022-09-01T05:16:23;28.40;99.90
11639;DHT22;5875;35.940;126.892;2022-09-01T05:18:51;28.40;99.90
11639;DHT22;5875;35.940;126.892;2022-09-01T05:21:21;28.20;99.90
11639;DHT22;5875;35.940;126.892;2022-09-01T05:23:50;28.10;99.90
11639;DHT22;5875;35.940;126.892;2022-09-01T05:26:28;28.00;99.90
11639;DHT22;5875;35.940;126.892;2022-09-01T05:29:04;27.90;99.90
11639;DHT22;5875;35.940;126.892;2022-09-01T05:31:35;27.80;99.90
11639;DHT22;5875;35.940;126.892;2022-09-01T05:34:04;27.80;99.90
11639;DHT22;5875;35.940;126.892;2022-09-01T05:36:36;27.70;99.90
11639;DHT22;5875;35.940;126.892;2022-09-01T05:39:06;27.80;99.90
11639;DHT22;5875;35.940;126.892;2022-09-01T05:41:33;27.90;99.90
11639;DHT22;5875;35.940;126.892;2022-09-01T05:44:03;27.90;99.90
11639;DHT22;5875;35.940;126.892;2022-09-01T05:46:32;28.40;99.90
11639;DHT22;5875;35.940;126.892;2022-09-01T05:49:00;28.60;99.90
11639;DHT22;5875;35.940;126.892;2022-09-01T05:51:29;28.80;99.90
11639;DHT22;5875;35.940;126.892;2022-09-01T05:54:01;28.80;99.90
11639;DHT22;5875;35.940;126.892;2022-09-01T05:56:29;28.70;99.90
11639;DHT22;5875;35.940;126.892;2022-09-01T05:58:59;28.70;99.90
11639;DHT22;5875;35.940;126.892;2022-09-01T06:01:28;28.70;99.90
11639;DHT22;5875;35.940;126.892;2022-09-01T06:04:00;28.50;99.90
11639;DHT22;5875;35.940;126.892;2022-09-01T06:06:39;28.80;99.90
11639;DHT22;5875;35.940;126.892;2022-09-01T06:09:07;29.20;99.90
11639;DHT22;5875;35.940;126.892;2022-09-01T06:11:36;29.40;99.90
11639;DHT22;5875;35.940;126.892;2022-09-01T06:14:04;29.40;99.90
11639;DHT22;5875;35.940;126.892;2022-09-01T06:16:31;29.30;99.90
11639;DHT22;5875;35.940;126.892;2022-09-01T06:18:58;29.20;99.90
11639;DHT22;5875;35.940;126.892;2022-09-01T06:21:26;29.20;99.90
11639;DHT22;5875;35.940;126.892;2022-09-01T06:23:55;29.00;99.90
11639;DHT22;5875;35.940;126.892;2022-09-01T06:26:28;28.80;99.90
11639;DHT22;5875;35.940;126.892;2022-09-01T06:29:09;28.60;99.90
11639;DHT22;5875;35.940;126.892;2022-09-01T06:31:41;28.50;99.90
11639;DHT22;5875;35.940;126.892;2022-09-01T06:34:11;28.40;99.90
11639;DHT22;5875;35.940;126.892;2022-09-01T06:36:44;28.30;99.90
11639;DHT22;5875;35.940;126.892;2022-09-01T06:39:13;28.30;99.90
11639;DHT22;5875;35.940;126.892;2022-09-01T06:41:46;28.30;99.90
11639;DHT22;5875;35.940;126.892;2022-09-01T06:44:15;28.50;99.90
11639;DHT22;5875;35.940;126.892;2022-09-01T06:46:49;28.50;99.90
11639;DHT22;5875;35.940;126.892;2022-09-01T06:49:17;28.40;99.90
11639;DHT22;5875;35.940;126.892;2022-09-01T06:51:46;28.30;99.90
11639;DHT22;5875;35.940;126.892;2022-09-01T06:54:14;28.20;99.90
11639;DHT22;5875;35.940;126.892;2022-09-01T06:56:42;28.20;99.90
11639;DHT22;5875;35.940;126.892;2022-09-01T06:59:09;28.30;99.90
11639;DHT22;5875;35.940;126.892;2022-09-01T07:01:41;28.20;99.90
11639;DHT22;5875;35.940;126.892;2022-09-01T07:04:08;28.20;99.90
11639;DHT22;5875;35.940;126.892;2022-09-01T07:06:35;28.20;99.90
11639;DHT22;5875;35.940;126.892;2022-09-01T07:09:05;28.00;99.90
11639;DHT22;5875;35.940;126.892;2022-09-01T07:11:33;28.00;99.90
11639;DHT22;5875;35.940;126.892;2022-09-01T07:14:03;28.00;99.90
11639;DHT22;5875;35.940;126.892;2022-09-01T07:16:33;27.90;99.90
11639;DHT22;5875;35.940;126.892;2022-09-01T07:19:07;27.90;99.90
11639;DHT22;5875;35.940;126.892;2022-09-01T07:21:42;27.80;99.90
11639;DHT22;5875;35.940;126.892;2022-09-01T07:24:11;27.80;99.90
11639;DHT22;5875;35.940;126.892;2022-09-01T07:26:40;27.70;99.90
11639;DHT22;5875;35.940;126.892;2022-09-01T07:29:08;27.60;99.90
11639;DHT22;5875;35.940;126.892;2022-09-01T07:31:37;27.70;99.90
11639;DHT22;5875;35.940;126.892;2022-09-01T07:34:08;27.70;99.90
11639;DHT22;5875;35.940;126.892;2022-09-01T07:36:42;27.70;99.90
11639;DHT22;5875;35.940;126.892;2022-09-01T07:39:11;27.60;99.90
11639;DHT22;5875;35.940;126.892;2022-09-01T07:41:40;27.70;99.90
11639;DHT22;5875;35.940;126.892;2022-09-01T07:44:08;27.50;99.90
11639;DHT22;5875;35.940;126.892;2022-09-01T07:46:41;27.40;99.90
11639;DHT22;5875;35.940;126.892;2022-09-01T07:49:08;27.40;99.90
11639;DHT22;5875;35.940;126.892;2022-09-01T07:51:35;27.30;99.90
11639;DHT22;5875;35.940;126.892;2022-09-01T07:54:03;27.10;99.90
11639;DHT22;5875;35.940;126.892;2022-09-01T07:56:31;27.20;99.90
11639;DHT22;5875;35.940;126.892;2022-09-01T07:58:58;27.10;99.90
11639;DHT22;5875;35.940;126.892;2022-09-01T08:01:26;27.20;99.90
11639;DHT22;5875;35.940;126.892;2022-09-01T08:03:59;27.40;99.90
11639;DHT22;5875;35.940;126.892;2022-09-01T08:06:29;27.40;99.90
11639;DHT22;5875;35.940;126.892;2022-09-01T08:08:58;27.50;99.90
11639;DHT22;5875;35.940;126.892;2022-09-01T08:11:29;27.60;99.90
11639;DHT22;5875;35.940;126.892;2022-09-01T08:13:58;27.60;99.90
11639;DHT22;5875;35.940;126.892;2022-09-01T08:16:30;27.60;99.90
11639;DHT22;5875;35.940;126.892;2022-09-01T08:18:57;27.60;99.90
11639;DHT22;5875;35.940;126.892;2022-09-01T08:21:26;27.40;99.90
11639;DHT22;5875;35.940;126.892;2022-09-01T08:23:54;27.50;99.90
11639;DHT22;5875;35.940;126.892;2022-09-01T08:26:23;27.50;99.90
11639;DHT22;5875;35.940;126.892;2022-09-01T08:28:52;27.40;99.90
11639;DHT22;5875;35.940;126.892;2022-09-01T08:31:20;27.40;99.90
11639;DHT22;5875;35.940;126.892;2022-09-01T08:33:48;27.30;99.90
11639;DHT22;5875;35.940;126.892;2022-09-01T08:36:17;27.30;99.90
11639;DHT22;5875;35.940;126.892;2022-09-01T08:38:44;27.30;99.90
11639;DHT22;5875;35.940;126.892;2022-09-01T08:44:48;27.20;99.90
11639;DHT22;5875;35.940;126.892;2022-09-01T08:47:04;27.10;99.90
11639;DHT22;5875;35.940;126.892;2022-09-01T08:49:33;27.00;99.90
11639;DHT22;5875;35.940;126.892;2022-09-01T08:57:31;26.70;99.90
11639;DHT22;5875;35.940;126.892;2022-09-01T08:59:59;26.70;99.90
11639;DHT22;5875;35.940;126.892;2022-09-01T09:16:16;26.40;99.90
11639;DHT22;5875;35.940;126.892;2022-09-01T09:19:42;26.30;99.90
11639;DHT22;5875;35.940;126.892;2022-09-01T09:21:47;26.20;99.90
11639;DHT22;5875;35.940;126.892;2022-09-01T09:27:30;26.10;99.90
11639;DHT22;5875;35.940;126.892;2022-09-01T09:30:10;26.00;99.90
11639;DHT22;5875;35.940;126.892;2022-09-01T09:32:48;25.90;99.90
11639;DHT22;5875;35.940;126.892;2022-09-01T09:35:26;25.90;99.90
11639;DHT22;5875;35.940;126.892;2022-09-01T09:37:53;25.80;99.90
11639;DHT22;5875;35.940;126.892;2022-09-01T09:40:25;25.70;99.90
11639;DHT22;5875;35.940;126.892;2022-09-01T09:45:24;25.50;99.90
11639;DHT22;5875;35.940;126.892;2022-09-01T09:47:54;25.50;99.90
11639;DHT22;5875;35.940;126.892;2022-09-01T09:50:30;25.40;99.90
11639;DHT22;5875;35.940;126.892;2022-09-01T09:56:34;25.30;99.90
11639;DHT22;5875;35.940;126.892;2022-09-01T09:58:38;25.20;99.90
11639;DHT22;5875;35.940;126.892;2022-09-01T10:03:54;25.10;99.90
11639;DHT22;5875;35.940;126.892;2022-09-01T10:11:51;25.00;99.90
11639;DHT22;5875;35.940;126.892;2022-09-01T10:14:44;24.90;99.90
11639;DHT22;5875;35.940;126.892;2022-09-01T10:17:34;24.80;99.90
11639;DHT22;5875;35.940;126.892;2022-09-01T10:20:08;24.80;99.90
11639;DHT22;5875;35.940;126.892;2022-09-01T10:22:39;24.70;99.90
11639;DHT22;5875;35.940;126.892;2022-09-01T10:25:09;24.70;99.90
11639;DHT22;5875;35.940;126.892;2022-09-01T10:27:41;24.70;99.90
11639;DHT22;5875;35.940;126.892;2022-09-01T10:30:17;24.60;99.90
11639;DHT22;5875;35.940;126.892;2022-09-01T10:32:54;24.60;99.90
11639;DHT22;5875;35.940;126.892;2022-09-01T10:35:32;24.50;99.90
11639;DHT22;5875;35.940;126.892;2022-09-01T10:38:03;24.40;99.90
11639;DHT22;5875;35.940;126.892;2022-09-01T10:40:41;24.40;99.90
11639;DHT22;5875;35.940;126.892;2022-09-01T10:43:35;24.40;99.90
11639;DHT22;5875;35.940;126.892;2022-09-01T10:46:28;24.30;99.90
11639;DHT22;5875;35.940;126.892;2022-09-01T10:48:57;24.30;99.90
11639;DHT22;5875;35.940;126.892;2022-09-01T10:53:53;24.10;99.90
11639;DHT22;5875;35.940;126.892;2022-09-01T11:04:12;23.90;99.90
11639;DHT22;5875;35.940;126.892;2022-09-01T11:06:54;23.90;99.90
11639;DHT22;5875;35.940;126.892;2022-09-01T11:09:31;23.80;99.90
11639;DHT22;5875;35.940;126.892;2022-09-01T11:14:52;23.70;99.90
11639;DHT22;5875;35.940;126.892;2022-09-01T11:20:34;23.70;99.90
11639;DHT22;5875;35.940;126.892;2022-09-01T11:23:11;23.70;99.90
11639;DHT22;5875;35.940;126.892;2022-09-01T11:25:44;23.60;99.90
11639;DHT22;5875;35.940;126.892;2022-09-01T11:36:33;23.50;99.90
11639;DHT22;5875;35.940;126.892;2022-09-01T11:47:39;23.40;99.90
11639;DHT22;5875;35.940;126.892;2022-09-01T11:50:25;23.40;99.90
11639;DHT22;5875;35.940;126.892;2022-09-01T11:53:05;23.40;99.90
11639;DHT22;5875;35.940;126.892;2022-09-01T11:55:34;23.40;99.90
11639;DHT22;5875;35.940;126.892;2022-09-01T11:58:02;23.40;99.90
11639;DHT22;5875;35.940;126.892;2022-09-01T12:00:38;23.40;99.90
11639;DHT22;5875;35.940;126.892;2022-09-01T12:03:20;23.40;99.90
11639;DHT22;5875;35.940;126.892;2022-09-01T12:05:52;23.40;99.90
11639;DHT22;5875;35.940;126.892;2022-09-01T12:08:26;23.40;99.90
11639;DHT22;5875;35.940;126.892;2022-09-01T12:11:07;23.30;99.90
11639;DHT22;5875;35.940;126.892;2022-09-01T12:13:36;23.30;99.90
11639;DHT22;5875;35.940;126.892;2022-09-01T12:16:08;23.30;99.90
11639;DHT22;5875;35.940;126.892;2022-09-01T12:18:45;23.20;99.90
11639;DHT22;5875;35.940;126.892;2022-09-01T12:21:36;23.20;99.90
11639;DHT22;5875;35.940;126.892;2022-09-01T12:24:23;23.20;99.90
11639;DHT22;5875;35.940;126.892;2022-09-01T12:26:52;23.20;99.90
11639;DHT22;5875;35.940;126.892;2022-09-01T12:29:20;23.10;99.90
11639;DHT22;5875;35.940;126.892;2022-09-01T12:31:50;23.10;99.90
11639;DHT22;5875;35.940;126.892;2022-09-01T12:39:40;23.10;99.90
11639;DHT22;5875;35.940;126.892;2022-09-01T12:44:51;23.10;99.90
11639;DHT22;5875;35.940;126.892;2022-09-01T12:50:03;22.70;99.90
11639;DHT22;5875;35.940;126.892;2022-09-01T12:52:32;22.40;99.90
11639;DHT22;5875;35.940;126.892;2022-09-01T13:00:13;22.30;99.90
11639;DHT22;5875;35.940;126.892;2022-09-01T13:02:43;22.30;99.90
11639;DHT22;5875;35.940;126.892;2022-09-01T13:08:07;22.40;99.90
11639;DHT22;5875;35.940;126.892;2022-09-01T13:10:47;22.50;99.90
11639;DHT22;5875;35.940;126.892;2022-09-01T13:13:15;22.60;99.90
11639;DHT22;5875;35.940;126.892;2022-09-01T13:15:49;22.60;99.90
11639;DHT22;5875;35.940;126.892;2022-09-01T13:18:18;22.60;99.90
11639;DHT22;5875;35.940;126.892;2022-09-01T13:20:47;22.60;99.90
11639;DHT22;5875;35.940;126.892;2022-09-01T13:23:15;22.50;99.90
11639;DHT22;5875;35.940;126.892;2022-09-01T13:25:42;22.50;99.90
11639;DHT22;5875;35.940;126.892;2022-09-01T13:28:14;22.60;99.90
11639;DHT22;5875;35.940;126.892;2022-09-01T13:30:44;22.60;99.90
11639;DHT22;5875;35.940;126.892;2022-09-01T13:33:12;22.50;99.90
11639;DHT22;5875;35.940;126.892;2022-09-01T13:35:39;22.50;99.90
11639;DHT22;5875;35.940;126.892;2022-09-01T13:38:06;22.50;99.90
11639;DHT22;5875;35.940;126.892;2022-09-01T13:40:33;22.40;99.90
11639;DHT22;5875;35.940;126.892;2022-09-01T13:43:00;22.40;99.90
11639;DHT22;5875;35.940;126.892;2022-09-01T13:45:30;22.40;99.90
11639;DHT22;5875;35.940;126.892;2022-09-01T13:47:57;22.40;99.90
11639;DHT22;5875;35.940;126.892;2022-09-01T13:50:25;22.40;99.90
11639;DHT22;5875;35.940;126.892;2022-09-01T13:52:54;22.30;99.90
11639;DHT22;5875;35.940;126.892;2022-09-01T13:55:28;22.30;99.90
11639;DHT22;5875;35.940;126.892;2022-09-01T13:57:55;22.30;99.90
11639;DHT22;5875;35.940;126.892;2022-09-01T14:00:27;22.20;99.90
11639;DHT22;5875;35.940;126.892;2022-09-01T14:02:57;22.30;99.90
11639;DHT22;5875;35.940;126.892;2022-09-01T14:05:31;22.10;99.90
11639;DHT22;5875;35.940;126.892;2022-09-01T14:07:59;21.70;99.90
11639;DHT22;5875;35.940;126.892;2022-09-01T14:10:28;21.40;99.90
11639;DHT22;5875;35.940;126.892;2022-09-01T14:12:58;21.50;99.90
11639;DHT22;5875;35.940;126.892;2022-09-01T14:15:25;21.70;99.90
11639;DHT22;5875;35.940;126.892;2022-09-01T14:17:54;21.90;99.90
11639;DHT22;5875;35.940;126.892;2022-09-01T14:20:25;21.90;99.90
11639;DHT22;5875;35.940;126.892;2022-09-01T14:22:52;21.90;99.90
11639;DHT22;5875;35.940;126.892;2022-09-01T14:25:21;21.90;99.90
11639;DHT22;5875;35.940;126.892;2022-09-01T14:27:49;22.00;99.90
11639;DHT22;5875;35.940;126.892;2022-09-01T14:30:23;21.80;99.90
11639;DHT22;5875;35.940;126.892;2022-09-01T14:32:51;21.80;99.90
11639;DHT22;5875;35.940;126.892;2022-09-01T14:35:22;21.80;99.90
11639;DHT22;5875;35.940;126.892;2022-09-01T14:37:55;21.70;99.90
11639;DHT22;5875;35.940;126.892;2022-09-01T14:40:24;21.70;99.90
11639;DHT22;5875;35.940;126.892;2022-09-01T14:42:52;21.70;99.90
11639;DHT22;5875;35.940;126.892;2022-09-01T14:45:22;21.70;99.90
11639;DHT22;5875;35.940;126.892;2022-09-01T14:47:52;21.70;99.90
11639;DHT22;5875;35.940;126.892;2022-09-01T14:50:20;21.70;99.90
11639;DHT22;5875;35.940;126.892;2022-09-01T14:52:50;21.70;99.90
11639;DHT22;5875;35.940;126.892;2022-09-01T14:55:19;21.70;99.90
11639;DHT22;5875;35.940;126.892;2022-09-01T14:57:46;21.70;99.90
11639;DHT22;5875;35.940;126.892;2022-09-01T15:00:13;21.70;99.90
11639;DHT22;5875;35.940;126.892;2022-09-01T15:02:41;21.70;99.90
11639;DHT22;5875;35.940;126.892;2022-09-01T15:05:11;21.70;99.90
11639;DHT22;5875;35.940;126.892;2022-09-01T15:07:42;21.60;99.90
11639;DHT22;5875;35.940;126.892;2022-09-01T15:10:12;21.60;99.90
11639;DHT22;5875;35.940;126.892;2022-09-01T15:12:40;21.60;99.90
11639;DHT22;5875;35.940;126.892;2022-09-01T15:15:08;21.60;99.90
11639;DHT22;5875;35.940;126.892;2022-09-01T15:17:36;21.50;99.90
11639;DHT22;5875;35.940;126.892;2022-09-01T15:20:03;21.40;99.90
11639;DHT22;5875;35.940;126.892;2022-09-01T15:22:49;21.40;99.90
11639;DHT22;5875;35.940;126.892;2022-09-01T15:25:17;21.40;99.90
11639;DHT22;5875;35.940;126.892;2022-09-01T15:27:44;21.40;99.90
11639;DHT22;5875;35.940;126.892;2022-09-01T15:30:12;21.40;99.90
11639;DHT22;5875;35.940;126.892;2022-09-01T15:32:44;21.40;99.90
11639;DHT22;5875;35.940;126.892;2022-09-01T15:35:12;21.50;99.90
11639;DHT22;5875;35.940;126.892;2022-09-01T15:37:40;21.40;99.90
11639;DHT22;5875;35.940;126.892;2022-09-01T15:40:08;21.40;99.90
11639;DHT22;5875;35.940;126.892;2022-09-01T15:42:36;21.10;99.90
11639;DHT22;5875;35.940;126.892;2022-09-01T15:45:09;20.70;99.90
11639;DHT22;5875;35.940;126.892;2022-09-01T15:47:37;20.80;99.90
11639;DHT22;5875;35.940;126.892;2022-09-01T15:50:07;21.00;99.90
11639;DHT22;5875;35.940;126.892;2022-09-01T15:52:40;21.10;99.90
11639;DHT22;5875;35.940;126.892;2022-09-01T15:55:13;21.10;99.90
11639;DHT22;5875;35.940;126.892;2022-09-01T15:57:40;21.20;99.90
11639;DHT22;5875;35.940;126.892;2022-09-01T16:00:07;21.10;99.90
11639;DHT22;5875;35.940;126.892;2022-09-01T16:02:36;21.10;99.90
11639;DHT22;5875;35.940;126.892;2022-09-01T16:05:04;21.20;99.90
11639;DHT22;5875;35.940;126.892;2022-09-01T16:07:31;21.20;99.90
11639;DHT22;5875;35.940;126.892;2022-09-01T16:09:58;21.10;99.90
11639;DHT22;5875;35.940;126.892;2022-09-01T16:12:25;21.10;99.90
11639;DHT22;5875;35.940;126.892;2022-09-01T16:14:54;21.00;99.90
11639;DHT22;5875;35.940;126.892;2022-09-01T16:17:43;21.00;99.90
11639;DHT22;5875;35.940;126.892;2022-09-01T16:20:37;21.10;99.90
11639;DHT22;5875;35.940;126.892;2022-09-01T16:23:22;21.10;99.90
11639;DHT22;5875;35.940;126.892;2022-09-01T16:25:50;21.20;99.90
11639;DHT22;5875;35.940;126.892;2022-09-01T16:28:32;21.10;99.90
11639;DHT22;5875;35.940;126.892;2022-09-01T16:31:35;21.10;99.90
11639;DHT22;5875;35.940;126.892;2022-09-01T16:34:10;21.10;99.90
11639;DHT22;5875;35.940;126.892;2022-09-01T16:39:48;21.00;99.90
11639;DHT22;5875;35.940;126.892;2022-09-01T16:45:31;20.90;99.90
11639;DHT22;5875;35.940;126.892;2022-09-01T16:48:15;20.90;99.90
11639;DHT22;5875;35.940;126.892;2022-09-01T16:50:51;20.90;99.90
11639;DHT22;5875;35.940;126.892;2022-09-01T16:56:43;20.50;99.90
11639;DHT22;5875;35.940;126.892;2022-09-01T17:04:57;20.60;99.90
11639;DHT22;5875;35.940;126.892;2022-09-01T17:07:37;20.60;99.90
11639;DHT22;5875;35.940;126.892;2022-09-01T17:12:54;20.70;99.90
11639;DHT22;5875;35.940;126.892;2022-09-01T17:15:31;20.60;99.90
11639;DHT22;5875;35.940;126.892;2022-09-01T17:21:05;20.70;99.90
11639;DHT22;5875;35.940;126.892;2022-09-01T17:23:41;20.70;99.90
11639;DHT22;5875;35.940;126.892;2022-09-01T17:26:24;20.70;99.90
11639;DHT22;5875;35.940;126.892;2022-09-01T17:29:02;20.80;99.90
11639;DHT22;5875;35.940;126.892;2022-09-01T17:35:40;20.80;99.90
11639;DHT22;5875;35.940;126.892;2022-09-01T17:37:58;20.80;99.90
11639;DHT22;5875;35.940;126.892;2022-09-01T17:49:16;20.70;99.90